Aérodrome :
LOGIN :

S'inscrire | Disclaimer

   EN    FR    IT 

 










Légende :    VFR   VFR Marginal   IFR   IFR Intensif   IFR Très Intensif
Visi : 
Plafond : 
>= 8 km
>= 3000ft
5 à 8 km
1000 à 3000 ft
1500m à 5 km
500 à 1000 ft
800 à 1500m
200 à 500 ft
< 800m
< 200 ft
Symboles :   Orages  Brouillard  Fortes neiges  Fortes précipitations  Vent > 20 kt
SIGMETs :   Divers  Orages  Givrage  Turbulence  Onde Orograph.  Cendres Volcan.






- Altitude de l'aérodrome : 1910 ft
- Code IATA : RDZ


LFCR - Rodez

DERNIER METAR :
  • 151800Z AUTO 12005KT 9999 BKN030 BKN037 OVC044 10/08 Q1011 NOSIG

METARs EXPIRÉS :
  • 151730Z AUTO 10003KT 9999 OVC034 08/07 Q1011 NOSIG
  • 151700Z AUTO 09002KT 9999 SCT026 BKN037 08/05 Q1011 NOSIG
  • 151630Z AUTO 00000KT 9999 BKN028 10/06 Q1011 NOSIG
  • 151600Z AUTO 25004KT 9999 SCT032 11/06 Q1011 NOSIG
  • 151530Z AUTO 24004KT 9999 BKN032 13/06 Q1011 NOSIG

TAF TAF LFCR
Valide du 15 à 18h jusqu'au 16 à 18h UTC


151700Z 1518/1618 14008KT 9999 SCT030
BECMG 1520/1522 12012KT
TEMPO 1523/1606 BKN012
BECMG 1602/1604 15022G33KT
BECMG 1608/1611 13030G47KT
PROB30
TEMPO 1615/1618 BKN013



MET'MAP, la Météo Aéronautique d'un coup d'oeil ! - Copyright ORBIFLY Décembre 2007 - Disclaimer

ORBIFLY MET'MAP TEAM :

Programmation & Développement : Alexandra Zaïnal
Sur une idée originale de : Baudouin d'Aumeries
Assistance à la programmation : Marc-Olivier Méhu
Soutien technique & logistique : Manuel Goepfert

Contact : metmap@orbifly.com




SOURCES & CREDITS :

   NOAA